createdAt,value
2023-02-14T00:02:06.851Z,9.05
2023-02-14T00:04:33.602Z,8.52
2023-02-14T00:07:01.348Z,8.40
2023-02-14T00:09:27.835Z,8.52
2023-02-14T00:11:54.289Z,9.02
2023-02-14T00:14:39.374Z,8.32
2023-02-14T00:17:05.896Z,8.18
2023-02-14T00:19:34.572Z,8.68
2023-02-14T00:22:01.113Z,7.85
2023-02-14T00:24:27.730Z,8.10
2023-02-14T00:26:54.447Z,8.73
2023-02-14T00:29:24.592Z,8.60
2023-02-14T00:31:51.725Z,8.05
2023-02-14T00:34:19.499Z,8.32
2023-02-14T00:36:46.704Z,8.32
2023-02-14T00:39:15.124Z,7.80
2023-02-14T00:41:42.864Z,8.00
2023-02-14T00:44:10.574Z,7.13
2023-02-14T00:46:37.420Z,7.45
2023-02-14T00:49:04.337Z,7.10
2023-02-14T00:51:31.418Z,7.03
2023-02-14T00:53:57.939Z,7.20
2023-02-14T00:56:24.443Z,7.18
2023-02-14T00:58:50.938Z,7.20
2023-02-14T01:01:18.497Z,6.88
2023-02-14T01:03:45.104Z,7.10
2023-02-14T01:06:11.807Z,7.07
2023-02-14T01:08:38.305Z,7.03
2023-02-14T01:11:16.540Z,6.63
2023-02-14T01:13:43.820Z,7.28
2023-02-14T01:16:13.421Z,7.10
2023-02-14T01:18:40.372Z,6.63
2023-02-14T01:21:20.770Z,6.75
2023-02-14T01:23:50.196Z,6.68
2023-02-14T01:26:17.366Z,6.47
2023-02-14T01:28:44.691Z,7.13
2023-02-14T01:31:14.261Z,6.20
2023-02-14T01:33:42.181Z,7.05
2023-02-14T01:36:16.183Z,6.22
2023-02-14T01:38:42.838Z,6.18
2023-02-14T01:41:09.493Z,6.90
2023-02-14T01:44:03.781Z,6.93
2023-02-14T01:49:05.276Z,6.80
2023-02-14T01:51:34.425Z,6.53
2023-02-14T01:54:02.212Z,6.50
2023-02-14T01:56:35.482Z,5.95
2023-02-14T01:59:05.392Z,5.70
2023-02-14T02:01:32.116Z,5.68
2023-02-14T02:04:04.081Z,6.03
2023-02-14T02:06:38.414Z,5.90
2023-02-14T02:09:14.117Z,6.05
2023-02-14T02:11:42.127Z,6.13
2023-02-14T02:14:15.932Z,6.07
2023-02-14T02:19:38.823Z,5.95
2023-02-14T02:22:35.547Z,6.47
2023-02-14T02:25:37.686Z,5.90
2023-02-14T02:28:04.215Z,5.72
2023-02-14T02:30:51.080Z,5.90
2023-02-14T02:33:29.610Z,6.15
2023-02-14T02:36:26.554Z,5.72
2023-02-14T02:38:59.037Z,5.45
2023-02-14T02:41:54.105Z,6.13
2023-02-14T02:44:48.257Z,5.55
2023-02-14T02:47:32.716Z,5.88
2023-02-14T02:50:30.984Z,5.82
2023-02-14T02:53:10.666Z,5.05
2023-02-14T02:56:10.973Z,5.47
2023-02-14T02:58:48.487Z,5.53
2023-02-14T03:01:23.235Z,5.10
2023-02-14T03:04:12.971Z,4.80
2023-02-14T03:06:40.671Z,5.40
2023-02-14T03:09:19.158Z,5.18
2023-02-14T03:11:56.897Z,5.57
2023-02-14T03:14:44.599Z,5.72
2023-02-14T03:17:24.886Z,5.45
2023-02-14T03:20:16.805Z,5.00
2023-02-14T03:23:17.395Z,5.05
2023-02-14T03:25:56.550Z,5.00
2023-02-14T03:28:29.345Z,4.72
2023-02-14T03:31:04.373Z,5.40
2023-02-14T03:33:35.105Z,5.10
2023-02-14T03:36:06.862Z,4.88
2023-02-14T03:38:44.028Z,4.85
2023-02-14T03:41:21.819Z,4.88
2023-02-14T03:44:05.091Z,5.35
2023-02-14T03:46:44.803Z,4.80
2023-02-14T03:49:16.326Z,4.40
2023-02-14T03:51:47.839Z,5.05
2023-02-14T03:54:17.131Z,4.78
2023-02-14T03:56:49.920Z,5.05
2023-02-14T03:59:27.510Z,4.22
2023-02-14T04:02:01.338Z,4.60
2023-02-14T04:04:33.158Z,4.70
2023-02-14T04:06:59.736Z,4.72
2023-02-14T04:09:26.304Z,4.20
2023-02-14T04:11:52.800Z,5.18
2023-02-14T04:14:19.320Z,4.35
2023-02-14T04:17:04.231Z,4.30
2023-02-14T04:19:30.724Z,4.13
2023-02-14T04:21:57.182Z,4.97
2023-02-14T04:24:23.674Z,4.53
2023-02-14T04:27:10.038Z,4.40
2023-02-14T04:29:42.802Z,4.38
2023-02-14T04:32:12.794Z,4.68
2023-02-14T04:34:39.420Z,4.13
2023-02-14T04:37:06.572Z,4.45
2023-02-14T04:39:33.953Z,4.65
2023-02-14T04:42:00.446Z,3.92
2023-02-14T04:44:27.154Z,4.22
2023-02-14T04:46:53.828Z,4.20
2023-02-14T04:49:20.339Z,4.07
2023-02-14T04:51:47.191Z,4.35
2023-02-14T04:54:13.773Z,4.30
2023-02-14T04:56:40.351Z,4.20
2023-02-14T04:59:06.854Z,4.38
2023-02-14T05:01:33.457Z,4.15
2023-02-14T05:04:00.031Z,4.35
2023-02-14T05:06:26.771Z,4.07
2023-02-14T05:08:53.242Z,4.20
2023-02-14T05:11:19.752Z,3.95
2023-02-14T05:13:46.306Z,4.00
2023-02-14T05:16:12.865Z,4.15
2023-02-14T05:18:39.539Z,4.03
2023-02-14T05:21:06.586Z,3.72
2023-02-14T05:23:33.149Z,4.13
2023-02-14T05:25:59.706Z,4.57
2023-02-14T05:28:26.274Z,4.53
2023-02-14T05:30:52.862Z,4.50
2023-02-14T05:33:19.643Z,4.38
2023-02-14T05:35:46.185Z,4.53
2023-02-14T05:38:13.843Z,4.03
2023-02-14T05:40:41.272Z,3.60
2023-02-14T05:43:07.836Z,3.88
2023-02-14T05:45:34.588Z,4.72
2023-02-14T05:48:01.261Z,4.10
2023-02-14T05:50:28.642Z,3.90
2023-02-14T05:52:55.970Z,4.00
2023-02-14T05:55:22.962Z,4.15
2023-02-14T05:57:49.490Z,4.13
2023-02-14T06:00:16.619Z,3.97
2023-02-14T06:02:43.220Z,4.25
2023-02-14T06:05:09.804Z,4.82
2023-02-14T06:07:36.335Z,3.85
2023-02-14T06:10:03.335Z,3.97
2023-02-14T06:12:29.865Z,3.75
2023-02-14T06:14:56.368Z,4.03
2023-02-14T06:17:22.879Z,3.60
2023-02-14T06:19:49.349Z,4.20
2023-02-14T06:22:16.200Z,3.40
2023-02-14T06:24:42.734Z,3.35
2023-02-14T06:27:09.270Z,3.92
2023-02-14T06:29:35.924Z,4.30
2023-02-14T06:32:06.737Z,4.05
2023-02-14T06:34:33.972Z,3.88
2023-02-14T06:37:00.833Z,4.28
2023-02-14T06:39:27.320Z,3.90
2023-02-14T06:41:54.200Z,3.83
2023-02-14T06:44:20.856Z,4.10
2023-02-14T06:46:47.359Z,3.88
2023-02-14T06:49:14.335Z,4.40
2023-02-14T06:51:40.819Z,3.83
2023-02-14T06:54:07.313Z,3.95
2023-02-14T06:56:33.840Z,4.45
2023-02-14T06:59:00.413Z,3.70
2023-02-14T07:01:27.052Z,4.15
2023-02-14T07:03:53.617Z,3.65
2023-02-14T07:06:20.131Z,4.00
2023-02-14T07:08:46.685Z,3.55
2023-02-14T07:11:13.230Z,5.03
2023-02-14T07:13:39.775Z,4.22
2023-02-14T07:16:06.631Z,4.60
2023-02-14T07:18:33.210Z,4.32
2023-02-14T07:20:59.986Z,4.10
2023-02-14T07:23:26.673Z,4.00
2023-02-14T07:25:54.720Z,3.92
2023-02-14T07:28:21.638Z,4.18
2023-02-14T07:30:48.427Z,4.65
2023-02-14T07:33:15.338Z,4.22
2023-02-14T07:35:41.850Z,3.97
2023-02-14T07:38:08.606Z,4.28
2023-02-14T07:40:35.119Z,4.40
2023-02-14T07:43:01.628Z,4.00
2023-02-14T07:45:28.148Z,3.92
2023-02-14T07:47:55.788Z,3.97
2023-02-14T07:50:23.320Z,4.20
2023-02-14T07:52:50.230Z,4.35
2023-02-14T07:55:16.873Z,3.80
2023-02-14T07:57:43.520Z,4.18
2023-02-14T08:00:10.408Z,4.53
2023-02-14T08:02:36.956Z,4.30
2023-02-14T08:05:03.559Z,4.10
2023-02-14T08:07:30.153Z,4.68
2023-02-14T08:09:56.794Z,4.40
2023-02-14T08:12:41.925Z,4.47
2023-02-14T08:15:27.239Z,3.95
2023-02-14T08:17:53.778Z,4.32
2023-02-14T08:20:20.407Z,4.68
2023-02-14T08:22:46.970Z,3.90
2023-02-14T08:25:13.527Z,4.40
2023-02-14T08:27:40.050Z,4.57
2023-02-14T08:30:08.716Z,4.40
2023-02-14T08:32:35.372Z,4.43
2023-02-14T08:35:01.990Z,4.93
2023-02-14T08:37:28.631Z,4.78
2023-02-14T08:39:55.111Z,4.35
2023-02-14T08:42:21.598Z,4.82
2023-02-14T08:44:48.208Z,4.47
2023-02-14T08:47:14.777Z,4.28
2023-02-14T08:49:41.559Z,4.90
2023-02-14T08:52:08.086Z,5.55
2023-02-14T08:54:34.633Z,4.68
2023-02-14T08:57:03.452Z,5.28
2023-02-14T08:59:30.072Z,4.93
2023-02-14T09:01:56.618Z,5.63
2023-02-14T09:04:23.225Z,5.43
2023-02-14T09:06:49.847Z,5.75
2023-02-14T09:09:17.496Z,6.43
2023-02-14T09:11:44.233Z,6.50
2023-02-14T09:14:10.786Z,6.82
2023-02-14T09:16:37.395Z,6.57
2023-02-14T09:19:04.011Z,7.20
2023-02-14T09:21:30.664Z,6.72
2023-02-14T09:23:57.659Z,6.35
2023-02-14T09:26:24.312Z,6.45
2023-02-14T09:28:50.790Z,5.93
2023-02-14T09:31:19.626Z,6.55
2023-02-14T09:34:06.365Z,5.75
2023-02-14T09:36:51.951Z,6.68
2023-02-14T09:39:18.484Z,7.00
2023-02-14T09:42:11.316Z,6.93
2023-02-14T09:44:52.240Z,6.45
2023-02-14T09:47:24.924Z,6.15
2023-02-14T09:49:52.576Z,6.78
2023-02-14T09:52:22.518Z,7.25
2023-02-14T09:54:57.507Z,6.10
2023-02-14T09:57:59.772Z,6.28
2023-02-14T10:00:42.512Z,6.95
2023-02-14T10:03:34.062Z,6.53
2023-02-14T10:06:40.152Z,6.97
2023-02-14T10:09:41.872Z,6.60
2023-02-14T10:12:20.892Z,7.22
2023-02-14T10:14:48.644Z,7.50
2023-02-14T10:17:22.364Z,7.93
2023-02-14T10:22:42.162Z,7.80
2023-02-14T10:25:22.501Z,8.07
2023-02-14T10:27:49.922Z,8.55
2023-02-14T10:30:19.648Z,8.55
2023-02-14T10:32:49.794Z,9.43
2023-02-14T10:35:43.044Z,8.25
2023-02-14T10:38:57.483Z,9.80
2023-02-14T10:41:49.924Z,8.30
2023-02-14T10:44:42.694Z,8.52
2023-02-14T10:47:21.307Z,7.90
2023-02-14T10:50:09.572Z,7.95
2023-02-14T10:52:36.022Z,10.20
2023-02-14T10:55:30.082Z,9.05
2023-02-14T10:57:58.854Z,8.70
2023-02-14T11:01:14.482Z,8.30
2023-02-14T11:03:49.909Z,9.32
2023-02-14T11:06:16.439Z,8.68
2023-02-14T11:08:43.079Z,8.98
2023-02-14T11:11:15.753Z,9.45
2023-02-14T11:13:42.890Z,8.52
2023-02-14T11:16:27.798Z,8.73
2023-02-14T11:19:14.012Z,8.95
2023-02-14T11:21:43.652Z,8.70
2023-02-14T11:24:32.493Z,9.05
2023-02-14T11:27:07.396Z,9.45
2023-02-14T11:29:42.995Z,9.05
2023-02-14T11:32:21.623Z,9.65
2023-02-14T11:35:00.889Z,8.65
2023-02-14T11:37:34.337Z,8.30
2023-02-14T11:40:01.952Z,7.57
2023-02-14T11:42:51.641Z,8.32
2023-02-14T11:45:45.501Z,9.40
2023-02-14T11:48:22.308Z,8.68
2023-02-14T11:51:04.340Z,7.40
2023-02-14T11:53:56.189Z,8.70
2023-02-14T11:56:23.975Z,8.63
2023-02-14T11:58:55.459Z,8.57
2023-02-14T12:01:33.603Z,8.45
2023-02-14T12:04:04.614Z,8.88
2023-02-14T12:06:33.682Z,8.45
2023-02-14T12:09:22.119Z,8.77
2023-02-14T12:11:59.928Z,8.45
2023-02-14T12:14:35.237Z,9.00
2023-02-14T12:17:18.767Z,7.35
2023-02-14T12:19:54.620Z,8.60
2023-02-14T12:22:27.513Z,8.25
2023-02-14T12:27:52.467Z,7.88
2023-02-14T12:30:22.197Z,8.15
2023-02-14T12:32:53.858Z,7.65
2023-02-14T12:35:28.279Z,8.13
2023-02-14T12:38:06.636Z,7.35
2023-02-14T12:40:42.156Z,7.93
2023-02-14T12:43:22.642Z,8.30
2023-02-14T12:45:54.981Z,7.55
2023-02-14T12:48:24.424Z,7.43
2023-02-14T12:51:06.150Z,7.95
2023-02-14T12:53:38.949Z,7.55
2023-02-14T12:56:21.279Z,8.20
2023-02-14T12:59:10.440Z,7.70
2023-02-14T13:02:05.766Z,8.07
2023-02-14T13:05:05.547Z,7.78
2023-02-14T13:07:43.939Z,7.95
2023-02-14T13:10:54.634Z,7.93
2023-02-14T13:13:27.492Z,8.23
2023-02-14T13:16:17.335Z,7.70
2023-02-14T13:18:49.829Z,7.38
2023-02-14T13:21:24.284Z,8.07
2023-02-14T13:23:59.246Z,8.45
2023-02-14T13:26:31.835Z,8.00
2023-02-14T13:29:11.150Z,7.63
2023-02-14T13:31:39.301Z,7.97
2023-02-14T13:34:21.913Z,8.57
2023-02-14T13:36:49.166Z,7.78
2023-02-14T13:39:32.013Z,7.82
2023-02-14T13:42:01.138Z,7.53
2023-02-14T13:44:57.064Z,7.88
2023-02-14T13:47:27.130Z,8.50
2023-02-14T13:49:58.244Z,8.85
2023-02-14T13:52:46.998Z,7.88
2023-02-14T13:55:18.897Z,9.23
2023-02-14T13:57:45.901Z,8.65
2023-02-14T14:00:35.155Z,9.00
2023-02-14T14:03:01.993Z,8.93
2023-02-14T14:05:35.404Z,8.57
2023-02-14T14:08:20.242Z,8.75
2023-02-14T14:10:55.847Z,9.30
2023-02-14T14:13:40.383Z,7.88
2023-02-14T14:16:28.856Z,9.70
2023-02-14T14:18:56.950Z,8.40
2023-02-14T14:22:07.626Z,8.82
2023-02-14T14:24:36.356Z,9.77
2023-02-14T14:27:23.949Z,9.95
2023-02-14T14:29:54.853Z,9.40
2023-02-14T14:32:29.539Z,9.25
2023-02-14T14:35:05.496Z,9.38
2023-02-14T14:37:34.887Z,9.02
2023-02-14T14:40:04.933Z,9.02
2023-02-14T14:42:37.208Z,8.63
2023-02-14T14:45:25.923Z,8.35
2023-02-14T14:47:55.914Z,9.45
2023-02-14T14:50:27.385Z,8.75
2023-02-14T14:53:21.608Z,8.43
2023-02-14T14:58:36.104Z,8.80
2023-02-14T15:01:04.397Z,8.77
2023-02-14T15:03:31.019Z,8.80
2023-02-14T15:06:17.452Z,9.10
2023-02-14T15:08:45.249Z,8.07
2023-02-14T15:11:45.802Z,8.93
2023-02-14T15:14:20.073Z,8.23
2023-02-14T15:17:04.123Z,8.93
2023-02-14T15:19:37.084Z,8.70
2023-02-14T15:22:07.732Z,8.10
2023-02-14T15:24:38.188Z,8.10
2023-02-14T15:27:05.149Z,8.10
2023-02-14T15:29:33.084Z,7.97
2023-02-14T15:32:03.348Z,7.10
2023-02-14T15:34:38.159Z,7.43
2023-02-14T15:37:06.601Z,7.95
2023-02-14T15:39:40.754Z,7.70
2023-02-14T15:42:22.640Z,6.70
2023-02-14T15:44:49.235Z,6.03
2023-02-14T15:47:16.409Z,7.03
2023-02-14T15:49:46.465Z,6.70
2023-02-14T15:52:15.194Z,5.82
2023-02-14T15:54:45.333Z,6.05
2023-02-14T15:57:28.091Z,5.82
2023-02-14T15:59:55.061Z,5.93
2023-02-14T16:02:22.233Z,5.88
2023-02-14T16:04:48.812Z,6.65
2023-02-14T16:07:28.332Z,5.97
2023-02-14T16:10:19.763Z,6.22
2023-02-14T16:13:06.516Z,5.70
2023-02-14T16:15:38.827Z,5.53
2023-02-14T16:18:19.578Z,5.80
2023-02-14T16:20:51.342Z,6.10
2023-02-14T16:23:20.778Z,5.95
2023-02-14T16:25:47.505Z,5.95
2023-02-14T16:28:14.825Z,5.68
2023-02-14T16:30:42.648Z,5.38
2023-02-14T16:33:37.029Z,6.10
2023-02-14T16:36:15.663Z,5.90
2023-02-14T16:38:45.036Z,5.47
2023-02-14T16:41:22.939Z,5.72
2023-02-14T16:43:50.462Z,5.90
2023-02-14T16:46:20.653Z,6.15
2023-02-14T16:48:51.677Z,5.30
2023-02-14T16:51:21.293Z,6.50
2023-02-14T16:53:48.405Z,6.53
2023-02-14T16:56:27.334Z,7.05
2023-02-14T16:58:54.356Z,5.90
2023-02-14T17:01:20.916Z,5.38
2023-02-14T17:03:47.482Z,6.55
2023-02-14T17:06:19.472Z,6.90
2023-02-14T17:08:48.166Z,6.38
2023-02-14T17:11:15.418Z,7.65
2023-02-14T17:13:44.898Z,8.25
2023-02-14T17:16:15.450Z,8.15
2023-02-14T17:18:47.545Z,8.18
2023-02-14T17:21:15.900Z,8.82
2023-02-14T17:23:42.735Z,8.30
2023-02-14T17:26:11.208Z,7.57
2023-02-14T17:28:37.819Z,8.30
2023-02-14T17:31:04.793Z,8.90
2023-02-14T17:33:32.618Z,8.65
2023-02-14T17:36:12.088Z,9.13
2023-02-14T17:38:39.964Z,7.70
2023-02-14T17:41:15.242Z,9.25
2023-02-14T17:43:41.817Z,8.90
2023-02-14T17:46:08.680Z,9.35
2023-02-14T17:48:35.226Z,11.02
2023-02-14T17:51:09.406Z,9.30
2023-02-14T17:53:36.180Z,8.88
2023-02-14T17:56:10.968Z,9.98
2023-02-14T17:58:37.853Z,10.35
2023-02-14T18:01:10.752Z,10.05
2023-02-14T18:03:38.831Z,10.73
2023-02-14T18:06:06.570Z,11.00
2023-02-14T18:08:38.347Z,12.68
2023-02-14T18:11:10.721Z,12.38
2023-02-14T18:13:38.569Z,13.70
2023-02-14T18:16:08.546Z,14.13
2023-02-14T18:18:35.441Z,14.70
2023-02-14T18:21:03.890Z,14.60
2023-02-14T18:23:32.629Z,15.10
2023-02-14T18:26:04.146Z,14.77
2023-02-14T18:28:31.122Z,15.10
2023-02-14T18:31:07.142Z,15.90
2023-02-14T18:33:34.203Z,15.48
2023-02-14T18:36:13.485Z,16.83
2023-02-14T18:38:41.900Z,15.75
2023-02-14T18:41:10.822Z,17.08
2023-02-14T18:43:37.972Z,15.93
2023-02-14T18:46:12.751Z,17.67
2023-02-14T18:48:39.867Z,15.98
2023-02-14T18:51:11.460Z,15.98
2023-02-14T18:53:39.369Z,17.40
2023-02-14T18:56:14.728Z,17.98
2023-02-14T18:58:43.480Z,17.00
2023-02-14T19:01:14.815Z,16.52
2023-02-14T19:03:42.126Z,17.75
2023-02-14T19:06:09.533Z,18.17
2023-02-14T19:08:38.219Z,18.42
2023-02-14T19:11:10.611Z,18.63
2023-02-14T19:13:37.676Z,19.58
2023-02-14T19:16:19.191Z,19.75
2023-02-14T19:18:46.335Z,20.65
2023-02-14T19:21:14.448Z,21.70
2023-02-14T19:23:41.600Z,20.30
2023-02-14T19:26:13.867Z,20.45
2023-02-14T19:28:41.287Z,22.27
2023-02-14T19:31:08.471Z,21.58
2023-02-14T19:33:46.274Z,21.95
2023-02-14T19:36:15.351Z,22.20
2023-02-14T19:38:43.647Z,23.48
2023-02-14T19:41:19.870Z,22.67
2023-02-14T19:43:47.646Z,22.98
2023-02-14T19:46:15.855Z,24.13
2023-02-14T19:48:42.613Z,23.58
2023-02-14T19:51:18.401Z,23.08
2023-02-14T19:53:45.096Z,24.73
2023-02-14T19:56:11.940Z,24.02
2023-02-14T19:58:39.098Z,24.35
2023-02-14T20:01:05.962Z,23.42
2023-02-14T20:03:32.946Z,23.98
2023-02-14T20:05:59.454Z,23.98
2023-02-14T20:08:26.109Z,25.30
2023-02-14T20:10:52.646Z,24.98
2023-02-14T20:13:19.163Z,24.75
2023-02-14T20:15:45.912Z,25.23
2023-02-14T20:18:12.578Z,24.67
2023-02-14T20:21:03.720Z,23.92
2023-02-14T20:23:32.211Z,25.25
2023-02-14T20:25:58.758Z,24.27
2023-02-14T20:28:25.242Z,24.42
2023-02-14T20:30:51.878Z,25.02
2023-02-14T20:33:18.503Z,25.38
2023-02-14T20:35:45.009Z,26.58
2023-02-14T20:38:12.183Z,27.77
2023-02-14T20:40:40.426Z,28.55
2023-02-14T20:43:06.974Z,28.50
2023-02-14T20:45:33.471Z,27.98
2023-02-14T20:48:04.319Z,28.95
2023-02-14T20:50:31.719Z,28.08
2023-02-14T20:52:58.390Z,30.63
2023-02-14T20:55:27.103Z,29.13
2023-02-14T20:57:53.959Z,29.60
2023-02-14T21:00:20.607Z,29.30
2023-02-14T21:02:47.154Z,29.08
2023-02-14T21:05:18.355Z,30.67
2023-02-14T21:07:44.927Z,30.27
2023-02-14T21:10:11.605Z,30.85
2023-02-14T21:12:38.686Z,30.15
2023-02-14T21:15:06.968Z,30.33
2023-02-14T21:17:33.973Z,33.00
2023-02-14T21:20:00.603Z,32.92
2023-02-14T21:22:27.421Z,32.65
2023-02-14T21:24:53.956Z,32.17
2023-02-14T21:27:20.464Z,34.17
2023-02-14T21:29:46.973Z,34.42
2023-02-14T21:32:13.685Z,33.75
2023-02-14T21:34:40.448Z,34.42
2023-02-14T21:37:06.998Z,35.83
2023-02-14T21:39:35.753Z,36.63
2023-02-14T21:42:02.343Z,37.13
2023-02-14T21:44:47.348Z,36.17
2023-02-14T21:47:14.164Z,36.22
2023-02-14T21:49:59.568Z,38.53
2023-02-14T21:52:26.062Z,36.72
2023-02-14T21:54:52.602Z,38.28
2023-02-14T21:57:19.099Z,37.22
2023-02-14T21:59:45.604Z,39.40
2023-02-14T22:02:12.667Z,39.33
2023-02-14T22:04:39.459Z,39.40
2023-02-14T22:07:06.702Z,37.53
2023-02-14T22:09:33.259Z,39.72
2023-02-14T22:11:59.786Z,38.55
2023-02-14T22:14:29.237Z,38.30
2023-02-14T22:16:56.141Z,39.28
2023-02-14T22:19:22.749Z,38.42
2023-02-14T22:21:49.241Z,38.00
2023-02-14T22:24:15.750Z,38.03
2023-02-14T22:26:42.277Z,37.20
2023-02-14T22:29:11.548Z,37.92
2023-02-14T22:31:41.189Z,37.90
2023-02-14T22:34:09.934Z,36.35
2023-02-14T22:36:36.878Z,36.67
2023-02-14T22:39:04.462Z,37.20
2023-02-14T22:41:31.218Z,38.08
2023-02-14T22:43:57.738Z,35.97
2023-02-14T22:46:27.524Z,37.50
2023-02-14T22:48:55.325Z,36.00
2023-02-14T22:51:30.603Z,37.10
2023-02-14T22:53:59.330Z,34.72
2023-02-14T22:56:43.572Z,36.67
2023-02-14T22:59:22.238Z,34.33
2023-02-14T23:01:50.192Z,34.53
2023-02-14T23:04:19.047Z,33.50
2023-02-14T23:06:45.652Z,32.88
2023-02-14T23:09:13.406Z,31.77
2023-02-14T23:11:41.855Z,33.42
2023-02-14T23:14:27.413Z,31.70
2023-02-14T23:17:12.723Z,33.88
2023-02-14T23:19:58.137Z,30.77
2023-02-14T23:22:27.952Z,30.42
2023-02-14T23:24:57.356Z,31.17
2023-02-14T23:27:29.407Z,32.20
2023-02-14T23:29:55.950Z,32.10
2023-02-14T23:32:22.541Z,32.10
2023-02-14T23:34:49.054Z,31.50
2023-02-14T23:37:15.735Z,30.58
2023-02-14T23:39:42.268Z,30.98
2023-02-14T23:42:12.159Z,30.00
2023-02-14T23:44:38.714Z,29.17
2023-02-14T23:47:08.077Z,30.83
2023-02-14T23:49:36.691Z,30.58
2023-02-14T23:52:04.466Z,29.52
2023-02-14T23:54:30.999Z,27.95
2023-02-14T23:56:57.630Z,28.45
2023-02-14T23:59:24.646Z,28.20
